sensor_id;sensor_type;location;lat;lon;timestamp;P1;durP1;ratioP1;P2;durP2;ratioP2
4432;SDS011;2229;48.708;9.706;2023-03-20T00:00:28;7.10;;;3.70;;
4432;SDS011;2229;48.708;9.706;2023-03-20T00:02:57;6.10;;;3.03;;
4432;SDS011;2229;48.708;9.706;2023-03-20T00:05:26;4.63;;;2.13;;
4432;SDS011;2229;48.708;9.706;2023-03-20T00:07:55;6.07;;;3.53;;
4432;SDS011;2229;48.708;9.706;2023-03-20T00:10:25;10.00;;;4.03;;
4432;SDS011;2229;48.708;9.706;2023-03-20T00:12:56;6.63;;;3.00;;
4432;SDS011;2229;48.708;9.706;2023-03-20T00:15:25;3.43;;;1.70;;
4432;SDS011;2229;48.708;9.706;2023-03-20T00:17:56;6.33;;;2.40;;
4432;SDS011;2229;48.708;9.706;2023-03-20T00:20:29;4.83;;;2.23;;
4432;SDS011;2229;48.708;9.706;2023-03-20T00:22:56;3.13;;;1.93;;
4432;SDS011;2229;48.708;9.706;2023-03-20T00:25:23;5.73;;;2.60;;
4432;SDS011;2229;48.708;9.706;2023-03-20T00:27:52;4.77;;;2.23;;
4432;SDS011;2229;48.708;9.706;2023-03-20T00:30:25;4.73;;;2.80;;
4432;SDS011;2229;48.708;9.706;2023-03-20T00:32:56;7.30;;;2.83;;
4432;SDS011;2229;48.708;9.706;2023-03-20T00:35:26;3.73;;;2.27;;
4432;SDS011;2229;48.708;9.706;2023-03-20T00:37:56;4.03;;;2.20;;
4432;SDS011;2229;48.708;9.706;2023-03-20T00:40:28;4.23;;;2.40;;
4432;SDS011;2229;48.708;9.706;2023-03-20T00:42:58;4.27;;;2.30;;
4432;SDS011;2229;48.708;9.706;2023-03-20T00:45:28;4.37;;;2.13;;
4432;SDS011;2229;48.708;9.706;2023-03-20T00:47:59;5.07;;;2.70;;
4432;SDS011;2229;48.708;9.706;2023-03-20T00:50:28;5.90;;;3.43;;
4432;SDS011;2229;48.708;9.706;2023-03-20T00:52:57;4.03;;;2.20;;
4432;SDS011;2229;48.708;9.706;2023-03-20T00:55:26;3.80;;;3.23;;
4432;SDS011;2229;48.708;9.706;2023-03-20T00:57:54;4.83;;;2.13;;
4432;SDS011;2229;48.708;9.706;2023-03-20T01:00:25;3.43;;;2.50;;
4432;SDS011;2229;48.708;9.706;2023-03-20T01:03:02;6.97;;;4.27;;
4432;SDS011;2229;48.708;9.706;2023-03-20T01:05:36;6.30;;;3.50;;
4432;SDS011;2229;48.708;9.706;2023-03-20T01:08:05;5.90;;;3.37;;
4432;SDS011;2229;48.708;9.706;2023-03-20T01:10:37;7.27;;;3.40;;
4432;SDS011;2229;48.708;9.706;2023-03-20T01:13:05;5.90;;;4.00;;
4432;SDS011;2229;48.708;9.706;2023-03-20T01:15:39;4.37;;;3.33;;
4432;SDS011;2229;48.708;9.706;2023-03-20T01:18:10;5.27;;;3.80;;
4432;SDS011;2229;48.708;9.706;2023-03-20T01:20:39;5.47;;;3.90;;
4432;SDS011;2229;48.708;9.706;2023-03-20T01:23:06;5.87;;;2.97;;
4432;SDS011;2229;48.708;9.706;2023-03-20T01:25:35;6.13;;;3.40;;
4432;SDS011;2229;48.708;9.706;2023-03-20T01:28:03;6.90;;;3.17;;
4432;SDS011;2229;48.708;9.706;2023-03-20T01:30:39;8.07;;;3.40;;
4432;SDS011;2229;48.708;9.706;2023-03-20T01:33:11;7.20;;;3.83;;
4432;SDS011;2229;48.708;9.706;2023-03-20T01:35:41;4.53;;;2.73;;
4432;SDS011;2229;48.708;9.706;2023-03-20T01:38:10;6.70;;;3.70;;
4432;SDS011;2229;48.708;9.706;2023-03-20T01:40:46;4.83;;;2.77;;
4432;SDS011;2229;48.708;9.706;2023-03-20T01:43:19;6.87;;;3.60;;
4432;SDS011;2229;48.708;9.706;2023-03-20T01:45:55;6.73;;;4.33;;
4432;SDS011;2229;48.708;9.706;2023-03-20T01:48:30;7.77;;;3.50;;
4432;SDS011;2229;48.708;9.706;2023-03-20T01:51:22;6.93;;;2.90;;
4432;SDS011;2229;48.708;9.706;2023-03-20T01:53:53;7.23;;;3.30;;
4432;SDS011;2229;48.708;9.706;2023-03-20T01:56:25;5.90;;;3.27;;
4432;SDS011;2229;48.708;9.706;2023-03-20T01:58:57;4.50;;;2.70;;
4432;SDS011;2229;48.708;9.706;2023-03-20T02:01:27;3.90;;;2.67;;
4432;SDS011;2229;48.708;9.706;2023-03-20T02:03:56;5.23;;;3.40;;
4432;SDS011;2229;48.708;9.706;2023-03-20T02:06:44;4.00;;;2.83;;
4432;SDS011;2229;48.708;9.706;2023-03-20T02:09:16;5.43;;;3.73;;
4432;SDS011;2229;48.708;9.706;2023-03-20T02:11:45;6.90;;;3.30;;
4432;SDS011;2229;48.708;9.706;2023-03-20T02:14:15;4.93;;;3.20;;
4432;SDS011;2229;48.708;9.706;2023-03-20T02:16:52;4.93;;;2.27;;
4432;SDS011;2229;48.708;9.706;2023-03-20T02:19:49;4.90;;;2.33;;
4432;SDS011;2229;48.708;9.706;2023-03-20T02:31:35;3.67;;;1.83;;
4432;SDS011;2229;48.708;9.706;2023-03-20T02:34:39;5.13;;;2.60;;
4432;SDS011;2229;48.708;9.706;2023-03-20T02:40:20;3.93;;;2.30;;
4432;SDS011;2229;48.708;9.706;2023-03-20T02:42:57;6.20;;;2.60;;
4432;SDS011;2229;48.708;9.706;2023-03-20T02:45:32;2.70;;;1.80;;
4432;SDS011;2229;48.708;9.706;2023-03-20T02:48:18;3.80;;;2.80;;
4432;SDS011;2229;48.708;9.706;2023-03-20T02:50:55;6.63;;;3.00;;
4432;SDS011;2229;48.708;9.706;2023-03-20T02:53:35;4.60;;;2.53;;
4432;SDS011;2229;48.708;9.706;2023-03-20T02:56:10;4.13;;;2.60;;
4432;SDS011;2229;48.708;9.706;2023-03-20T02:58:43;8.40;;;3.23;;
4432;SDS011;2229;48.708;9.706;2023-03-20T03:01:16;5.93;;;3.10;;
4432;SDS011;2229;48.708;9.706;2023-03-20T03:03:52;3.83;;;1.87;;
4432;SDS011;2229;48.708;9.706;2023-03-20T03:06:24;3.90;;;2.47;;
4432;SDS011;2229;48.708;9.706;2023-03-20T03:08:57;7.00;;;3.33;;
4432;SDS011;2229;48.708;9.706;2023-03-20T03:11:27;15.80;;;2.20;;
4432;SDS011;2229;48.708;9.706;2023-03-20T03:13:56;9.47;;;2.40;;
4432;SDS011;2229;48.708;9.706;2023-03-20T03:16:25;3.13;;;2.07;;
4432;SDS011;2229;48.708;9.706;2023-03-20T03:18:58;2.80;;;1.80;;
4432;SDS011;2229;48.708;9.706;2023-03-20T03:21:31;3.80;;;2.13;;
4432;SDS011;2229;48.708;9.706;2023-03-20T03:24:02;4.07;;;1.80;;
4432;SDS011;2229;48.708;9.706;2023-03-20T03:26:31;3.17;;;1.53;;
4432;SDS011;2229;48.708;9.706;2023-03-20T03:29:03;3.40;;;2.10;;
4432;SDS011;2229;48.708;9.706;2023-03-20T03:31:38;2.27;;;1.30;;
4432;SDS011;2229;48.708;9.706;2023-03-20T03:34:10;3.33;;;2.33;;
4432;SDS011;2229;48.708;9.706;2023-03-20T03:36:43;1.97;;;1.37;;
4432;SDS011;2229;48.708;9.706;2023-03-20T03:39:22;4.67;;;2.37;;
4432;SDS011;2229;48.708;9.706;2023-03-20T03:41:56;13.53;;;2.07;;
4432;SDS011;2229;48.708;9.706;2023-03-20T03:44:33;4.33;;;1.50;;
4432;SDS011;2229;48.708;9.706;2023-03-20T03:47:07;4.40;;;2.83;;
4432;SDS011;2229;48.708;9.706;2023-03-20T03:49:40;3.03;;;1.73;;
4432;SDS011;2229;48.708;9.706;2023-03-20T03:52:12;3.37;;;1.70;;
4432;SDS011;2229;48.708;9.706;2023-03-20T03:54:46;4.20;;;1.53;;
4432;SDS011;2229;48.708;9.706;2023-03-20T03:57:30;2.33;;;1.20;;
4432;SDS011;2229;48.708;9.706;2023-03-20T04:00:07;2.43;;;1.37;;
4432;SDS011;2229;48.708;9.706;2023-03-20T04:02:39;3.27;;;1.53;;
4432;SDS011;2229;48.708;9.706;2023-03-20T04:05:10;2.13;;;1.30;;
4432;SDS011;2229;48.708;9.706;2023-03-20T04:07:42;3.13;;;1.43;;
4432;SDS011;2229;48.708;9.706;2023-03-20T04:10:12;2.50;;;1.50;;
4432;SDS011;2229;48.708;9.706;2023-03-20T04:12:41;5.50;;;1.43;;
4432;SDS011;2229;48.708;9.706;2023-03-20T04:15:10;2.33;;;1.47;;
4432;SDS011;2229;48.708;9.706;2023-03-20T04:17:41;2.40;;;1.33;;
4432;SDS011;2229;48.708;9.706;2023-03-20T04:20:10;2.33;;;1.43;;
4432;SDS011;2229;48.708;9.706;2023-03-20T04:22:39;2.90;;;1.70;;
4432;SDS011;2229;48.708;9.706;2023-03-20T04:25:13;2.13;;;1.33;;
4432;SDS011;2229;48.708;9.706;2023-03-20T04:27:44;2.30;;;1.50;;
4432;SDS011;2229;48.708;9.706;2023-03-20T04:30:34;3.07;;;1.83;;
4432;SDS011;2229;48.708;9.706;2023-03-20T04:33:15;2.60;;;1.20;;
4432;SDS011;2229;48.708;9.706;2023-03-20T04:35:54;2.80;;;1.23;;
4432;SDS011;2229;48.708;9.706;2023-03-20T04:38:22;2.80;;;1.50;;
4432;SDS011;2229;48.708;9.706;2023-03-20T04:40:52;3.03;;;1.20;;
4432;SDS011;2229;48.708;9.706;2023-03-20T04:43:19;2.37;;;1.57;;
4432;SDS011;2229;48.708;9.706;2023-03-20T04:45:47;2.73;;;1.47;;
4432;SDS011;2229;48.708;9.706;2023-03-20T04:48:14;2.50;;;1.33;;
4432;SDS011;2229;48.708;9.706;2023-03-20T04:50:42;3.20;;;1.10;;
4432;SDS011;2229;48.708;9.706;2023-03-20T04:53:13;2.70;;;1.13;;
4432;SDS011;2229;48.708;9.706;2023-03-20T04:55:41;2.50;;;1.20;;
4432;SDS011;2229;48.708;9.706;2023-03-20T04:58:11;3.70;;;1.70;;
4432;SDS011;2229;48.708;9.706;2023-03-20T05:00:39;4.73;;;1.97;;
4432;SDS011;2229;48.708;9.706;2023-03-20T05:03:06;2.50;;;1.10;;
4432;SDS011;2229;48.708;9.706;2023-03-20T05:05:34;3.63;;;2.70;;
4432;SDS011;2229;48.708;9.706;2023-03-20T05:08:03;2.53;;;1.20;;
4432;SDS011;2229;48.708;9.706;2023-03-20T05:10:34;2.73;;;1.00;;
4432;SDS011;2229;48.708;9.706;2023-03-20T05:13:15;2.67;;;1.47;;
4432;SDS011;2229;48.708;9.706;2023-03-20T05:15:57;2.63;;;1.27;;
4432;SDS011;2229;48.708;9.706;2023-03-20T05:18:43;2.83;;;1.10;;
4432;SDS011;2229;48.708;9.706;2023-03-20T05:21:11;3.00;;;1.30;;
4432;SDS011;2229;48.708;9.706;2023-03-20T05:24:09;2.23;;;0.80;;
4432;SDS011;2229;48.708;9.706;2023-03-20T05:26:57;3.63;;;1.70;;
4432;SDS011;2229;48.708;9.706;2023-03-20T05:29:50;4.17;;;1.87;;
4432;SDS011;2229;48.708;9.706;2023-03-20T05:32:31;3.53;;;1.10;;
4432;SDS011;2229;48.708;9.706;2023-03-20T05:35:19;2.23;;;1.20;;
4432;SDS011;2229;48.708;9.706;2023-03-20T05:37:51;3.03;;;1.63;;
4432;SDS011;2229;48.708;9.706;2023-03-20T05:40:30;1.97;;;0.80;;
4432;SDS011;2229;48.708;9.706;2023-03-20T05:43:18;2.60;;;1.70;;
4432;SDS011;2229;48.708;9.706;2023-03-20T05:45:53;8.00;;;1.43;;
4432;SDS011;2229;48.708;9.706;2023-03-20T05:48:30;2.93;;;1.43;;
4432;SDS011;2229;48.708;9.706;2023-03-20T05:51:09;1.30;;;0.80;;
4432;SDS011;2229;48.708;9.706;2023-03-20T05:53:55;2.57;;;1.10;;
4432;SDS011;2229;48.708;9.706;2023-03-20T05:56:37;2.10;;;1.17;;
4432;SDS011;2229;48.708;9.706;2023-03-20T05:59:24;1.60;;;0.80;;
4432;SDS011;2229;48.708;9.706;2023-03-20T06:02:16;1.93;;;1.10;;
4432;SDS011;2229;48.708;9.706;2023-03-20T06:04:52;1.30;;;0.70;;
4432;SDS011;2229;48.708;9.706;2023-03-20T06:07:26;1.60;;;0.77;;
4432;SDS011;2229;48.708;9.706;2023-03-20T06:10:09;2.47;;;0.83;;
4432;SDS011;2229;48.708;9.706;2023-03-20T06:12:38;6.00;;;0.97;;
4432;SDS011;2229;48.708;9.706;2023-03-20T06:15:06;2.77;;;1.13;;
4432;SDS011;2229;48.708;9.706;2023-03-20T06:17:40;2.23;;;1.30;;
4432;SDS011;2229;48.708;9.706;2023-03-20T06:20:08;2.60;;;0.80;;
4432;SDS011;2229;48.708;9.706;2023-03-20T06:22:42;4.77;;;0.77;;
4432;SDS011;2229;48.708;9.706;2023-03-20T06:25:10;1.43;;;0.60;;
4432;SDS011;2229;48.708;9.706;2023-03-20T06:27:41;3.73;;;1.30;;
4432;SDS011;2229;48.708;9.706;2023-03-20T06:30:09;1.80;;;0.80;;
4432;SDS011;2229;48.708;9.706;2023-03-20T06:32:41;2.37;;;0.90;;
4432;SDS011;2229;48.708;9.706;2023-03-20T06:35:10;2.10;;;1.17;;
4432;SDS011;2229;48.708;9.706;2023-03-20T06:37:43;1.90;;;1.20;;
4432;SDS011;2229;48.708;9.706;2023-03-20T06:40:15;1.27;;;0.83;;
4432;SDS011;2229;48.708;9.706;2023-03-20T06:42:44;1.70;;;0.90;;
4432;SDS011;2229;48.708;9.706;2023-03-20T06:45:12;2.33;;;1.30;;
4432;SDS011;2229;48.708;9.706;2023-03-20T06:48:06;1.87;;;0.90;;
4432;SDS011;2229;48.708;9.706;2023-03-20T06:50:34;2.50;;;1.30;;
4432;SDS011;2229;48.708;9.706;2023-03-20T06:53:01;2.43;;;1.00;;
4432;SDS011;2229;48.708;9.706;2023-03-20T06:55:52;2.50;;;0.87;;
4432;SDS011;2229;48.708;9.706;2023-03-20T06:58:20;1.50;;;0.73;;
4432;SDS011;2229;48.708;9.706;2023-03-20T07:00:49;2.23;;;0.77;;
4432;SDS011;2229;48.708;9.706;2023-03-20T07:03:20;3.50;;;0.83;;
4432;SDS011;2229;48.708;9.706;2023-03-20T07:05:48;1.80;;;1.00;;
4432;SDS011;2229;48.708;9.706;2023-03-20T07:08:17;1.80;;;0.70;;
4432;SDS011;2229;48.708;9.706;2023-03-20T07:10:44;1.67;;;0.80;;
4432;SDS011;2229;48.708;9.706;2023-03-20T07:13:11;1.73;;;1.00;;
4432;SDS011;2229;48.708;9.706;2023-03-20T07:15:39;4.23;;;0.97;;
4432;SDS011;2229;48.708;9.706;2023-03-20T07:18:09;2.20;;;0.83;;
4432;SDS011;2229;48.708;9.706;2023-03-20T07:20:38;2.03;;;0.80;;
4432;SDS011;2229;48.708;9.706;2023-03-20T07:23:06;2.70;;;0.87;;
4432;SDS011;2229;48.708;9.706;2023-03-20T07:25:35;1.50;;;0.70;;
4432;SDS011;2229;48.708;9.706;2023-03-20T07:28:03;2.10;;;1.10;;
4432;SDS011;2229;48.708;9.706;2023-03-20T07:30:32;1.73;;;0.63;;
4432;SDS011;2229;48.708;9.706;2023-03-20T07:32:59;1.63;;;0.90;;
4432;SDS011;2229;48.708;9.706;2023-03-20T07:35:29;3.73;;;1.27;;
4432;SDS011;2229;48.708;9.706;2023-03-20T07:37:59;1.97;;;0.97;;
4432;SDS011;2229;48.708;9.706;2023-03-20T07:40:27;1.50;;;0.80;;
4432;SDS011;2229;48.708;9.706;2023-03-20T07:42:58;1.30;;;0.77;;
4432;SDS011;2229;48.708;9.706;2023-03-20T07:45:51;1.87;;;0.90;;
4432;SDS011;2229;48.708;9.706;2023-03-20T07:48:19;3.70;;;1.00;;
4432;SDS011;2229;48.708;9.706;2023-03-20T07:50:46;1.30;;;0.60;;
4432;SDS011;2229;48.708;9.706;2023-03-20T07:53:15;2.67;;;0.63;;
4432;SDS011;2229;48.708;9.706;2023-03-20T07:55:46;1.40;;;0.90;;
4432;SDS011;2229;48.708;9.706;2023-03-20T07:58:14;1.20;;;0.60;;
4432;SDS011;2229;48.708;9.706;2023-03-20T08:00:41;7.33;;;1.07;;
4432;SDS011;2229;48.708;9.706;2023-03-20T08:03:08;3.23;;;0.90;;
4432;SDS011;2229;48.708;9.706;2023-03-20T08:05:36;1.80;;;0.87;;
4432;SDS011;2229;48.708;9.706;2023-03-20T08:08:03;1.20;;;0.80;;
4432;SDS011;2229;48.708;9.706;2023-03-20T08:10:32;1.60;;;0.70;;
4432;SDS011;2229;48.708;9.706;2023-03-20T08:13:00;1.63;;;0.60;;
4432;SDS011;2229;48.708;9.706;2023-03-20T08:15:27;1.90;;;0.80;;
4432;SDS011;2229;48.708;9.706;2023-03-20T08:17:55;1.23;;;0.57;;
4432;SDS011;2229;48.708;9.706;2023-03-20T08:20:23;2.80;;;0.90;;
4432;SDS011;2229;48.708;9.706;2023-03-20T08:22:51;2.47;;;1.07;;
4432;SDS011;2229;48.708;9.706;2023-03-20T08:25:18;1.63;;;0.60;;
4432;SDS011;2229;48.708;9.706;2023-03-20T08:27:46;4.20;;;1.00;;
4432;SDS011;2229;48.708;9.706;2023-03-20T08:30:15;2.20;;;0.93;;
4432;SDS011;2229;48.708;9.706;2023-03-20T08:32:43;2.23;;;1.00;;
4432;SDS011;2229;48.708;9.706;2023-03-20T08:35:10;3.23;;;0.67;;
4432;SDS011;2229;48.708;9.706;2023-03-20T08:37:38;2.27;;;0.90;;
4432;SDS011;2229;48.708;9.706;2023-03-20T08:40:06;1.77;;;0.73;;
4432;SDS011;2229;48.708;9.706;2023-03-20T08:42:34;1.57;;;0.60;;
4432;SDS011;2229;48.708;9.706;2023-03-20T08:45:03;2.17;;;1.17;;
4432;SDS011;2229;48.708;9.706;2023-03-20T08:47:32;1.40;;;0.60;;
4432;SDS011;2229;48.708;9.706;2023-03-20T08:49:59;1.93;;;0.70;;
4432;SDS011;2229;48.708;9.706;2023-03-20T08:52:26;2.30;;;1.30;;
4432;SDS011;2229;48.708;9.706;2023-03-20T08:54:53;2.20;;;0.90;;
4432;SDS011;2229;48.708;9.706;2023-03-20T08:57:20;1.43;;;0.67;;
4432;SDS011;2229;48.708;9.706;2023-03-20T08:59:49;3.00;;;0.60;;
4432;SDS011;2229;48.708;9.706;2023-03-20T09:02:17;1.90;;;0.80;;
4432;SDS011;2229;48.708;9.706;2023-03-20T09:04:44;3.30;;;1.97;;
4432;SDS011;2229;48.708;9.706;2023-03-20T09:07:12;1.63;;;0.60;;
4432;SDS011;2229;48.708;9.706;2023-03-20T09:09:40;1.97;;;0.67;;
4432;SDS011;2229;48.708;9.706;2023-03-20T09:12:07;1.60;;;0.93;;
4432;SDS011;2229;48.708;9.706;2023-03-20T09:14:35;3.97;;;0.63;;
4432;SDS011;2229;48.708;9.706;2023-03-20T09:17:02;1.53;;;0.60;;
4432;SDS011;2229;48.708;9.706;2023-03-20T09:19:31;1.53;;;0.87;;
4432;SDS011;2229;48.708;9.706;2023-03-20T09:21:59;1.50;;;0.80;;
4432;SDS011;2229;48.708;9.706;2023-03-20T09:24:26;1.93;;;0.67;;
4432;SDS011;2229;48.708;9.706;2023-03-20T09:26:54;2.30;;;0.80;;
4432;SDS011;2229;48.708;9.706;2023-03-20T09:29:21;3.30;;;0.80;;
4432;SDS011;2229;48.708;9.706;2023-03-20T09:31:48;9.23;;;0.60;;
4432;SDS011;2229;48.708;9.706;2023-03-20T09:34:15;1.40;;;0.70;;
4432;SDS011;2229;48.708;9.706;2023-03-20T09:36:44;1.57;;;0.67;;
4432;SDS011;2229;48.708;9.706;2023-03-20T09:39:11;1.53;;;0.80;;
4432;SDS011;2229;48.708;9.706;2023-03-20T09:41:38;1.50;;;0.60;;
4432;SDS011;2229;48.708;9.706;2023-03-20T09:44:11;1.40;;;0.87;;
4432;SDS011;2229;48.708;9.706;2023-03-20T09:46:54;1.30;;;0.43;;
4432;SDS011;2229;48.708;9.706;2023-03-20T09:49:40;1.10;;;0.40;;
4432;SDS011;2229;48.708;9.706;2023-03-20T09:52:23;1.10;;;0.50;;
4432;SDS011;2229;48.708;9.706;2023-03-20T09:54:55;1.20;;;0.50;;
4432;SDS011;2229;48.708;9.706;2023-03-20T09:57:27;2.43;;;1.03;;
4432;SDS011;2229;48.708;9.706;2023-03-20T09:59:58;1.60;;;0.50;;
4432;SDS011;2229;48.708;9.706;2023-03-20T10:02:39;1.10;;;0.50;;
4432;SDS011;2229;48.708;9.706;2023-03-20T10:05:16;1.40;;;0.60;;
4432;SDS011;2229;48.708;9.706;2023-03-20T10:07:47;6.90;;;0.80;;
4432;SDS011;2229;48.708;9.706;2023-03-20T10:10:16;1.70;;;0.50;;
4432;SDS011;2229;48.708;9.706;2023-03-20T10:12:47;1.77;;;0.60;;
4432;SDS011;2229;48.708;9.706;2023-03-20T10:15:25;1.20;;;0.50;;
4432;SDS011;2229;48.708;9.706;2023-03-20T10:18:05;1.23;;;0.50;;
4432;SDS011;2229;48.708;9.706;2023-03-20T10:20:42;1.30;;;0.60;;
4432;SDS011;2229;48.708;9.706;2023-03-20T10:23:21;2.43;;;0.70;;
4432;SDS011;2229;48.708;9.706;2023-03-20T10:25:57;1.13;;;0.50;;
4432;SDS011;2229;48.708;9.706;2023-03-20T10:28:30;1.43;;;0.60;;
4432;SDS011;2229;48.708;9.706;2023-03-20T10:31:12;1.20;;;0.60;;
4432;SDS011;2229;48.708;9.706;2023-03-20T10:33:50;2.13;;;0.63;;
4432;SDS011;2229;48.708;9.706;2023-03-20T10:36:28;1.20;;;0.50;;
4432;SDS011;2229;48.708;9.706;2023-03-20T10:39:08;1.20;;;0.50;;
4432;SDS011;2229;48.708;9.706;2023-03-20T10:41:43;1.87;;;0.60;;
4432;SDS011;2229;48.708;9.706;2023-03-20T10:44:18;2.50;;;1.17;;
4432;SDS011;2229;48.708;9.706;2023-03-20T10:46:52;1.17;;;0.50;;
4432;SDS011;2229;48.708;9.706;2023-03-20T10:49:24;2.93;;;1.10;;
4432;SDS011;2229;48.708;9.706;2023-03-20T10:52:01;1.90;;;0.60;;
4432;SDS011;2229;48.708;9.706;2023-03-20T10:54:36;1.10;;;0.40;;
4432;SDS011;2229;48.708;9.706;2023-03-20T10:57:08;1.60;;;0.60;;
4432;SDS011;2229;48.708;9.706;2023-03-20T10:59:42;1.10;;;0.40;;
4432;SDS011;2229;48.708;9.706;2023-03-20T11:02:15;1.43;;;0.57;;
4432;SDS011;2229;48.708;9.706;2023-03-20T11:04:44;1.70;;;0.50;;
4432;SDS011;2229;48.708;9.706;2023-03-20T11:07:13;1.50;;;0.50;;
4432;SDS011;2229;48.708;9.706;2023-03-20T11:09:51;1.47;;;0.50;;
4432;SDS011;2229;48.708;9.706;2023-03-20T11:12:35;1.30;;;0.60;;
4432;SDS011;2229;48.708;9.706;2023-03-20T11:15:13;1.30;;;0.50;;
4432;SDS011;2229;48.708;9.706;2023-03-20T11:17:49;2.80;;;0.50;;
4432;SDS011;2229;48.708;9.706;2023-03-20T11:20:18;1.30;;;0.60;;
4432;SDS011;2229;48.708;9.706;2023-03-20T11:22:46;1.47;;;0.60;;
4432;SDS011;2229;48.708;9.706;2023-03-20T11:25:28;1.33;;;0.60;;
4432;SDS011;2229;48.708;9.706;2023-03-20T11:28:13;1.17;;;0.47;;
4432;SDS011;2229;48.708;9.706;2023-03-20T11:30:45;1.20;;;0.40;;
4432;SDS011;2229;48.708;9.706;2023-03-20T11:33:15;5.43;;;0.93;;
4432;SDS011;2229;48.708;9.706;2023-03-20T11:35:44;2.07;;;0.70;;
4432;SDS011;2229;48.708;9.706;2023-03-20T11:38:13;1.50;;;0.60;;
4432;SDS011;2229;48.708;9.706;2023-03-20T11:40:43;1.10;;;0.40;;
4432;SDS011;2229;48.708;9.706;2023-03-20T11:43:12;1.30;;;0.50;;
4432;SDS011;2229;48.708;9.706;2023-03-20T11:45:44;1.20;;;0.50;;
4432;SDS011;2229;48.708;9.706;2023-03-20T11:48:16;1.30;;;0.50;;
4432;SDS011;2229;48.708;9.706;2023-03-20T11:50:46;1.73;;;0.73;;
4432;SDS011;2229;48.708;9.706;2023-03-20T11:53:20;1.20;;;0.40;;
4432;SDS011;2229;48.708;9.706;2023-03-20T11:56:00;1.53;;;0.80;;
4432;SDS011;2229;48.708;9.706;2023-03-20T11:58:30;1.10;;;0.40;;
4432;SDS011;2229;48.708;9.706;2023-03-20T12:00:58;1.57;;;0.50;;
4432;SDS011;2229;48.708;9.706;2023-03-20T12:06:20;1.27;;;0.50;;
4432;SDS011;2229;48.708;9.706;2023-03-20T12:08:51;1.30;;;0.50;;
4432;SDS011;2229;48.708;9.706;2023-03-20T12:11:26;1.17;;;0.50;;
4432;SDS011;2229;48.708;9.706;2023-03-20T12:14:05;1.50;;;0.60;;
4432;SDS011;2229;48.708;9.706;2023-03-20T12:16:38;1.20;;;0.43;;
4432;SDS011;2229;48.708;9.706;2023-03-20T12:19:09;1.20;;;0.50;;
4432;SDS011;2229;48.708;9.706;2023-03-20T12:21:43;1.30;;;0.60;;
4432;SDS011;2229;48.708;9.706;2023-03-20T12:24:18;1.10;;;0.40;;
4432;SDS011;2229;48.708;9.706;2023-03-20T12:26:57;3.13;;;1.03;;
4432;SDS011;2229;48.708;9.706;2023-03-20T12:29:35;1.10;;;0.50;;
4432;SDS011;2229;48.708;9.706;2023-03-20T12:32:09;1.60;;;0.60;;
4432;SDS011;2229;48.708;9.706;2023-03-20T12:34:41;1.50;;;0.60;;
4432;SDS011;2229;48.708;9.706;2023-03-20T12:37:16;1.20;;;0.40;;
4432;SDS011;2229;48.708;9.706;2023-03-20T12:39:46;1.30;;;0.50;;
4432;SDS011;2229;48.708;9.706;2023-03-20T12:42:20;1.27;;;0.50;;
4432;SDS011;2229;48.708;9.706;2023-03-20T12:44:58;2.17;;;0.70;;
4432;SDS011;2229;48.708;9.706;2023-03-20T12:47:39;1.50;;;0.60;;
4432;SDS011;2229;48.708;9.706;2023-03-20T12:50:21;1.50;;;0.57;;
4432;SDS011;2229;48.708;9.706;2023-03-20T12:52:59;1.30;;;0.50;;
4432;SDS011;2229;48.708;9.706;2023-03-20T12:55:41;1.30;;;0.50;;
4432;SDS011;2229;48.708;9.706;2023-03-20T12:58:20;1.40;;;0.50;;
4432;SDS011;2229;48.708;9.706;2023-03-20T13:00:58;1.63;;;0.60;;
4432;SDS011;2229;48.708;9.706;2023-03-20T13:03:34;1.30;;;0.57;;
4432;SDS011;2229;48.708;9.706;2023-03-20T13:06:13;1.40;;;0.63;;
4432;SDS011;2229;48.708;9.706;2023-03-20T13:08:55;1.57;;;0.60;;
4432;SDS011;2229;48.708;9.706;2023-03-20T13:11:41;1.40;;;0.60;;
4432;SDS011;2229;48.708;9.706;2023-03-20T13:14:16;3.03;;;0.63;;
4432;SDS011;2229;48.708;9.706;2023-03-20T13:16:54;1.97;;;0.83;;
4432;SDS011;2229;48.708;9.706;2023-03-20T13:19:27;1.40;;;0.60;;
4432;SDS011;2229;48.708;9.706;2023-03-20T13:22:02;1.13;;;0.40;;
4432;SDS011;2229;48.708;9.706;2023-03-20T13:24:40;1.40;;;0.50;;
4432;SDS011;2229;48.708;9.706;2023-03-20T13:27:18;1.60;;;0.60;;
4432;SDS011;2229;48.708;9.706;2023-03-20T13:30:02;1.20;;;0.50;;
4432;SDS011;2229;48.708;9.706;2023-03-20T13:32:44;1.50;;;0.70;;
4432;SDS011;2229;48.708;9.706;2023-03-20T13:35:23;1.57;;;0.60;;
4432;SDS011;2229;48.708;9.706;2023-03-20T13:38:00;3.13;;;0.60;;
4432;SDS011;2229;48.708;9.706;2023-03-20T13:40:33;1.10;;;0.50;;
4432;SDS011;2229;48.708;9.706;2023-03-20T13:43:11;1.17;;;0.50;;
4432;SDS011;2229;48.708;9.706;2023-03-20T13:45:47;1.70;;;0.67;;
4432;SDS011;2229;48.708;9.706;2023-03-20T13:48:27;1.50;;;0.60;;
4432;SDS011;2229;48.708;9.706;2023-03-20T13:51:03;2.67;;;2.30;;
4432;SDS011;2229;48.708;9.706;2023-03-20T13:53:53;1.90;;;0.63;;
4432;SDS011;2229;48.708;9.706;2023-03-20T13:56:31;1.50;;;0.70;;
4432;SDS011;2229;48.708;9.706;2023-03-20T13:59:13;3.20;;;0.70;;
4432;SDS011;2229;48.708;9.706;2023-03-20T14:02:15;2.13;;;0.87;;
4432;SDS011;2229;48.708;9.706;2023-03-20T14:04:53;1.90;;;0.90;;
4432;SDS011;2229;48.708;9.706;2023-03-20T14:07:29;1.47;;;0.73;;
4432;SDS011;2229;48.708;9.706;2023-03-20T14:10:01;1.20;;;0.50;;
4432;SDS011;2229;48.708;9.706;2023-03-20T14:13:05;3.00;;;0.60;;
4432;SDS011;2229;48.708;9.706;2023-03-20T14:15:37;1.60;;;0.70;;
4432;SDS011;2229;48.708;9.706;2023-03-20T14:18:14;1.40;;;0.70;;
4432;SDS011;2229;48.708;9.706;2023-03-20T14:20:49;1.47;;;0.70;;
4432;SDS011;2229;48.708;9.706;2023-03-20T14:23:24;2.03;;;0.80;;
4432;SDS011;2229;48.708;9.706;2023-03-20T14:26:04;1.60;;;0.70;;
4432;SDS011;2229;48.708;9.706;2023-03-20T14:28:47;2.03;;;0.80;;
4432;SDS011;2229;48.708;9.706;2023-03-20T14:31:21;1.87;;;0.73;;
4432;SDS011;2229;48.708;9.706;2023-03-20T14:33:59;2.43;;;0.73;;
4432;SDS011;2229;48.708;9.706;2023-03-20T14:36:43;3.20;;;1.00;;
4432;SDS011;2229;48.708;9.706;2023-03-20T14:42:19;2.20;;;0.90;;
4432;SDS011;2229;48.708;9.706;2023-03-20T14:47:57;3.20;;;0.80;;
4432;SDS011;2229;48.708;9.706;2023-03-20T14:50:31;1.73;;;0.83;;
4432;SDS011;2229;48.708;9.706;2023-03-20T14:53:07;2.40;;;1.17;;
4432;SDS011;2229;48.708;9.706;2023-03-20T14:55:49;4.10;;;0.73;;
4432;SDS011;2229;48.708;9.706;2023-03-20T14:58:36;3.70;;;0.70;;
4432;SDS011;2229;48.708;9.706;2023-03-20T15:01:24;7.13;;;0.63;;
4432;SDS011;2229;48.708;9.706;2023-03-20T15:03:55;1.60;;;0.80;;
4432;SDS011;2229;48.708;9.706;2023-03-20T15:06:27;1.23;;;0.60;;
4432;SDS011;2229;48.708;9.706;2023-03-20T15:08:55;1.20;;;0.50;;
4432;SDS011;2229;48.708;9.706;2023-03-20T15:11:25;3.20;;;0.60;;
4432;SDS011;2229;48.708;9.706;2023-03-20T15:13:53;1.93;;;0.90;;
4432;SDS011;2229;48.708;9.706;2023-03-20T15:16:26;1.20;;;0.50;;
4432;SDS011;2229;48.708;9.706;2023-03-20T15:18:56;2.10;;;1.00;;
4432;SDS011;2229;48.708;9.706;2023-03-20T15:21:30;2.47;;;0.80;;
4432;SDS011;2229;48.708;9.706;2023-03-20T15:23:59;1.30;;;0.60;;
4432;SDS011;2229;48.708;9.706;2023-03-20T15:26:27;1.50;;;0.70;;
4432;SDS011;2229;48.708;9.706;2023-03-20T15:28:57;1.40;;;0.70;;
4432;SDS011;2229;48.708;9.706;2023-03-20T15:31:27;1.53;;;0.70;;
4432;SDS011;2229;48.708;9.706;2023-03-20T15:33:57;6.30;;;0.90;;
4432;SDS011;2229;48.708;9.706;2023-03-20T15:36:26;1.30;;;0.60;;
4432;SDS011;2229;48.708;9.706;2023-03-20T15:39:00;3.07;;;0.73;;
4432;SDS011;2229;48.708;9.706;2023-03-20T15:41:32;4.20;;;0.83;;
4432;SDS011;2229;48.708;9.706;2023-03-20T15:44:10;2.17;;;0.90;;
4432;SDS011;2229;48.708;9.706;2023-03-20T15:46:49;2.43;;;1.00;;
4432;SDS011;2229;48.708;9.706;2023-03-20T15:49:21;1.40;;;0.70;;
4432;SDS011;2229;48.708;9.706;2023-03-20T15:51:51;2.03;;;0.90;;
4432;SDS011;2229;48.708;9.706;2023-03-20T15:54:19;1.40;;;0.73;;
4432;SDS011;2229;48.708;9.706;2023-03-20T15:56:49;2.73;;;1.10;;
4432;SDS011;2229;48.708;9.706;2023-03-20T15:59:18;4.40;;;1.60;;
4432;SDS011;2229;48.708;9.706;2023-03-20T16:01:50;1.50;;;0.83;;
4432;SDS011;2229;48.708;9.706;2023-03-20T16:04:19;2.53;;;0.90;;
4432;SDS011;2229;48.708;9.706;2023-03-20T16:06:47;2.10;;;0.90;;
4432;SDS011;2229;48.708;9.706;2023-03-20T16:09:19;1.40;;;0.70;;
4432;SDS011;2229;48.708;9.706;2023-03-20T16:11:48;1.60;;;0.83;;
4432;SDS011;2229;48.708;9.706;2023-03-20T16:14:21;3.80;;;0.90;;